createdAt,value
2019-03-15T00:00:55.328Z,4.33
2019-03-15T00:03:23.401Z,4.10
2019-03-15T00:05:51.540Z,4.17
2019-03-15T00:08:19.622Z,3.67
2019-03-15T00:10:47.689Z,3.30
2019-03-15T00:13:15.798Z,4.03
2019-03-15T00:15:44.159Z,3.37
2019-03-15T00:18:12.378Z,3.53
2019-03-15T00:20:40.438Z,4.47
2019-03-15T00:23:08.820Z,4.00
2019-03-15T00:25:36.929Z,3.37
2019-03-15T00:28:04.992Z,3.80
2019-03-15T00:30:33.213Z,3.80
2019-03-15T00:33:01.311Z,3.00
2019-03-15T00:35:29.416Z,4.27
2019-03-15T00:37:57.487Z,4.27
2019-03-15T00:40:25.608Z,4.27
2019-03-15T00:42:53.748Z,3.13
2019-03-15T00:45:21.800Z,3.60
2019-03-15T00:47:50.651Z,3.43
2019-03-15T00:50:18.802Z,3.90
2019-03-15T00:52:46.863Z,4.53
2019-03-15T00:55:14.940Z,3.67
2019-03-15T00:57:43.034Z,3.60
2019-03-15T01:00:12.044Z,4.20
2019-03-15T01:02:40.109Z,4.00
2019-03-15T01:05:08.329Z,3.67
2019-03-15T01:07:36.413Z,4.43
2019-03-15T01:10:04.735Z,3.87
2019-03-15T01:12:32.851Z,3.60
2019-03-15T01:15:00.916Z,4.00
2019-03-15T01:17:28.966Z,3.40
2019-03-15T01:19:57.052Z,4.23
2019-03-15T01:22:26.184Z,3.53
2019-03-15T01:24:54.287Z,3.43
2019-03-15T01:27:22.414Z,4.20
2019-03-15T01:29:50.480Z,2.83
2019-03-15T01:32:18.590Z,3.63
2019-03-15T01:34:46.702Z,3.80
2019-03-15T01:37:15.054Z,3.37
2019-03-15T01:39:43.242Z,4.43
2019-03-15T01:42:11.315Z,3.83
2019-03-15T01:44:39.382Z,3.20
2019-03-15T01:47:07.495Z,3.53
2019-03-15T01:49:35.947Z,3.60
2019-03-15T01:52:04.831Z,3.23
2019-03-15T01:54:33.016Z,4.33
2019-03-15T01:57:02.719Z,3.70
2019-03-15T01:59:30.779Z,3.90
2019-03-15T02:01:58.876Z,3.57
2019-03-15T02:04:26.938Z,3.67
2019-03-15T02:06:55.129Z,3.23
2019-03-15T02:09:23.282Z,3.60
2019-03-15T02:11:51.490Z,3.50
2019-03-15T02:14:19.791Z,3.53
2019-03-15T02:16:47.892Z,3.00
2019-03-15T02:19:16.537Z,3.20
2019-03-15T02:21:44.621Z,3.90
2019-03-15T02:24:13.479Z,3.30
2019-03-15T02:26:42.504Z,3.63
2019-03-15T02:29:10.710Z,3.43
2019-03-15T02:31:38.849Z,4.17
2019-03-15T02:34:06.919Z,3.67
2019-03-15T02:36:34.985Z,3.13
2019-03-15T02:39:04.243Z,3.50
2019-03-15T02:41:35.278Z,3.80
2019-03-15T02:44:03.344Z,3.13
2019-03-15T02:46:31.499Z,3.80
2019-03-15T02:48:59.572Z,3.63
2019-03-15T02:51:27.786Z,2.83
2019-03-15T02:53:55.822Z,3.53
2019-03-15T02:56:23.882Z,3.20
2019-03-15T02:58:52.089Z,3.67
2019-03-15T03:01:20.132Z,3.37
2019-03-15T03:03:48.248Z,3.60
2019-03-15T03:06:16.320Z,3.03
2019-03-15T03:08:44.389Z,3.13
2019-03-15T03:11:12.496Z,4.13
2019-03-15T03:13:40.677Z,3.07
2019-03-15T03:16:08.697Z,3.73
2019-03-15T03:18:36.804Z,2.90
2019-03-15T03:21:04.921Z,3.00
2019-03-15T03:23:33.032Z,3.40
2019-03-15T03:26:02.209Z,2.93
2019-03-15T03:28:30.305Z,3.97
2019-03-15T03:30:58.538Z,2.93
2019-03-15T03:33:26.649Z,3.47
2019-03-15T03:35:54.718Z,3.00
2019-03-15T03:38:22.826Z,3.40
2019-03-15T03:40:50.906Z,3.20
2019-03-15T03:43:19.028Z,3.00
2019-03-15T03:45:47.121Z,3.17
2019-03-15T03:48:15.933Z,3.13
2019-03-15T03:50:44.179Z,2.93
2019-03-15T03:53:12.262Z,3.70
2019-03-15T03:55:40.464Z,2.50
2019-03-15T03:58:08.575Z,2.73
2019-03-15T04:00:36.748Z,2.63
2019-03-15T04:03:04.806Z,3.37
2019-03-15T04:05:33.236Z,3.60
2019-03-15T04:08:01.307Z,3.27
2019-03-15T04:10:29.544Z,3.00
2019-03-15T04:12:57.590Z,2.57
2019-03-15T04:15:25.671Z,3.00
2019-03-15T04:17:53.749Z,3.00
2019-03-15T04:20:25.985Z,2.93
2019-03-15T04:22:55.327Z,3.30
2019-03-15T04:25:24.823Z,3.53
2019-03-15T04:27:52.920Z,2.83
2019-03-15T04:30:21.775Z,3.10
2019-03-15T04:32:49.936Z,3.70
2019-03-15T04:35:18.000Z,3.43
2019-03-15T04:37:46.344Z,2.63
2019-03-15T04:40:14.456Z,3.20
2019-03-15T04:42:42.552Z,2.67
2019-03-15T04:45:13.444Z,3.13
2019-03-15T04:47:43.572Z,2.90
2019-03-15T04:50:11.330Z,3.10
2019-03-15T04:52:39.431Z,3.20
2019-03-15T04:55:07.593Z,3.13
2019-03-15T04:57:35.933Z,3.20
2019-03-15T05:00:04.346Z,3.47
2019-03-15T05:02:32.445Z,2.87
2019-03-15T05:05:01.064Z,3.40
2019-03-15T05:07:29.172Z,2.90
2019-03-15T05:09:57.282Z,3.13
2019-03-15T05:12:25.348Z,3.37
2019-03-15T05:14:53.458Z,3.83
2019-03-15T05:17:21.730Z,3.47
2019-03-15T05:19:49.792Z,5.07
2019-03-15T05:22:17.888Z,3.67
2019-03-15T05:24:46.008Z,3.97
2019-03-15T05:27:14.239Z,3.50
2019-03-15T05:29:42.303Z,4.03
2019-03-15T05:32:10.408Z,3.20
2019-03-15T05:34:38.516Z,4.43
2019-03-15T05:37:06.615Z,4.00
2019-03-15T05:39:34.695Z,3.80
2019-03-15T05:42:02.812Z,3.87
2019-03-15T05:44:30.880Z,4.03
2019-03-15T05:46:58.952Z,4.13
2019-03-15T05:49:27.084Z,4.33
2019-03-15T05:51:55.163Z,4.67
2019-03-15T05:54:23.268Z,3.90
2019-03-15T05:56:51.341Z,3.53
2019-03-15T05:59:19.439Z,4.00
2019-03-15T06:01:47.532Z,4.20
2019-03-15T06:04:15.743Z,4.30
2019-03-15T06:06:43.839Z,4.07
2019-03-15T06:09:11.917Z,4.40
2019-03-15T06:11:40.069Z,4.57
2019-03-15T06:14:08.143Z,3.70
2019-03-15T06:16:36.263Z,4.03
2019-03-15T06:19:04.327Z,3.67
2019-03-15T06:21:32.407Z,3.23
2019-03-15T06:24:00.574Z,3.80
2019-03-15T06:26:28.679Z,4.40
2019-03-15T06:28:56.863Z,4.43
2019-03-15T06:31:24.976Z,4.33
2019-03-15T06:33:53.132Z,3.40
2019-03-15T06:36:21.195Z,5.60
2019-03-15T06:38:49.309Z,4.70
2019-03-15T06:41:17.421Z,6.30
2019-03-15T06:43:45.537Z,4.90
2019-03-15T06:46:13.850Z,4.07
2019-03-15T06:48:44.883Z,5.23
2019-03-15T06:51:11.916Z,5.30
2019-03-15T06:53:40.100Z,5.50
2019-03-15T06:56:08.722Z,5.30
2019-03-15T06:58:36.805Z,5.40
2019-03-15T07:01:04.909Z,5.50
2019-03-15T07:03:33.026Z,4.93
2019-03-15T07:06:02.389Z,5.03
2019-03-15T07:08:31.422Z,5.60
2019-03-15T07:10:59.489Z,5.67
2019-03-15T07:13:27.565Z,5.23
2019-03-15T07:15:55.717Z,6.27
2019-03-15T07:18:23.846Z,5.20
2019-03-15T07:20:52.020Z,5.77
2019-03-15T07:23:20.357Z,5.80
2019-03-15T07:25:48.441Z,5.27
2019-03-15T07:28:16.512Z,5.80
2019-03-15T07:30:44.609Z,5.20
2019-03-15T07:33:12.678Z,5.53
2019-03-15T07:35:40.785Z,4.93
2019-03-15T07:38:08.863Z,5.40
2019-03-15T07:40:36.986Z,5.87
2019-03-15T07:43:05.506Z,5.53
2019-03-15T07:45:33.849Z,6.73
2019-03-15T07:48:02.433Z,6.60
2019-03-15T07:50:30.580Z,6.40
2019-03-15T07:52:58.709Z,5.60
2019-03-15T07:55:27.015Z,6.67
2019-03-15T07:57:55.082Z,7.33
2019-03-15T08:00:23.280Z,6.90
2019-03-15T08:02:51.350Z,6.97
2019-03-15T08:05:19.415Z,7.23
2019-03-15T08:07:47.796Z,7.20
2019-03-15T08:10:18.151Z,6.87
2019-03-15T08:12:49.398Z,7.30
2019-03-15T08:15:16.074Z,7.20
2019-03-15T08:17:44.132Z,6.80
2019-03-15T08:20:14.569Z,8.03
2019-03-15T08:22:42.811Z,7.60
2019-03-15T08:25:10.987Z,8.03
2019-03-15T08:27:39.086Z,7.60
2019-03-15T08:30:08.336Z,9.10
2019-03-15T08:32:36.501Z,7.67
2019-03-15T08:35:04.964Z,7.47
2019-03-15T08:37:33.175Z,8.87
2019-03-15T08:40:02.566Z,9.30
2019-03-15T08:42:30.658Z,8.03
2019-03-15T08:44:58.771Z,9.20
2019-03-15T08:47:26.987Z,10.57
2019-03-15T08:49:55.120Z,9.03
2019-03-15T08:52:23.224Z,9.30
2019-03-15T08:55:04.317Z,9.17
2019-03-15T08:57:21.211Z,8.83
2019-03-15T08:59:57.065Z,8.40
2019-03-15T09:02:19.019Z,8.93
2019-03-15T09:04:50.308Z,8.67
2019-03-15T09:07:16.918Z,9.83
2019-03-15T09:09:44.971Z,7.90
2019-03-15T09:12:13.023Z,9.20
2019-03-15T09:14:41.391Z,7.63
2019-03-15T09:17:09.468Z,7.50
2019-03-15T09:19:37.636Z,8.17
2019-03-15T09:22:05.847Z,7.60
2019-03-15T09:24:33.943Z,8.23
2019-03-15T09:27:02.024Z,7.37
2019-03-15T09:29:30.151Z,8.83
2019-03-15T09:32:05.447Z,6.83
2019-03-15T09:34:28.033Z,7.67
2019-03-15T09:36:56.181Z,7.00
2019-03-15T09:39:24.271Z,7.93
2019-03-15T09:41:52.476Z,8.77
2019-03-15T09:44:20.585Z,7.30
2019-03-15T09:46:48.646Z,8.70
2019-03-15T09:49:16.763Z,8.90
2019-03-15T09:51:45.094Z,9.27
2019-03-15T09:54:13.167Z,9.30
2019-03-15T09:56:41.236Z,8.60
2019-03-15T09:59:10.444Z,9.10
2019-03-15T10:01:38.509Z,8.80
2019-03-15T10:04:06.608Z,8.43
2019-03-15T10:06:34.709Z,7.43
2019-03-15T10:09:03.369Z,8.47
2019-03-15T10:11:31.498Z,9.17
2019-03-15T10:14:02.160Z,8.13
2019-03-15T10:16:29.461Z,8.70
2019-03-15T10:18:57.514Z,8.93
2019-03-15T10:21:25.605Z,9.07
2019-03-15T10:23:53.695Z,9.17
2019-03-15T10:26:21.763Z,8.27
2019-03-15T10:28:49.853Z,7.93
2019-03-15T10:31:17.910Z,9.40
2019-03-15T10:33:50.834Z,7.43
2019-03-15T10:36:15.736Z,8.40
2019-03-15T10:38:43.843Z,9.03
2019-03-15T10:41:11.940Z,8.67
2019-03-15T10:43:40.000Z,6.13
2019-03-15T10:46:08.145Z,8.83
2019-03-15T10:48:36.233Z,9.77
2019-03-15T10:51:04.306Z,10.43
2019-03-15T10:53:32.364Z,9.07
2019-03-15T10:56:00.788Z,7.53
2019-03-15T10:58:28.976Z,7.67
2019-03-15T11:00:57.052Z,7.30
2019-03-15T11:03:25.170Z,8.20
2019-03-15T11:05:53.220Z,6.43
2019-03-15T11:08:24.080Z,6.70
2019-03-15T11:10:51.207Z,6.93
2019-03-15T11:13:19.260Z,5.63
2019-03-15T11:15:48.192Z,5.77
2019-03-15T11:18:16.269Z,5.30
2019-03-15T11:20:44.367Z,4.97
2019-03-15T11:23:12.469Z,3.73
2019-03-15T11:25:40.535Z,5.07
2019-03-15T11:28:08.646Z,4.03
2019-03-15T11:30:36.733Z,3.87
2019-03-15T11:33:04.844Z,3.23
2019-03-15T11:35:32.961Z,3.73
2019-03-15T11:38:03.225Z,3.37
2019-03-15T11:40:31.636Z,2.93
2019-03-15T11:42:59.832Z,3.33
2019-03-15T11:45:27.928Z,3.10
2019-03-15T11:48:03.264Z,2.87
2019-03-15T11:50:25.995Z,2.90
2019-03-15T11:52:54.086Z,2.67
2019-03-15T11:55:22.329Z,2.13
2019-03-15T11:57:50.344Z,2.67
2019-03-15T12:00:20.879Z,2.93
2019-03-15T12:02:49.014Z,3.13
2019-03-15T12:05:17.069Z,2.70
2019-03-15T12:07:45.135Z,2.50
2019-03-15T12:10:13.273Z,2.87
2019-03-15T12:12:41.431Z,2.30
2019-03-15T12:15:09.727Z,2.07
2019-03-15T12:17:38.733Z,2.83
2019-03-15T12:20:06.978Z,2.37
2019-03-15T12:22:35.035Z,2.40
2019-03-15T12:25:03.166Z,2.63
2019-03-15T12:27:31.340Z,2.90
2019-03-15T12:29:59.487Z,3.20
2019-03-15T12:32:27.581Z,2.57
2019-03-15T12:34:55.680Z,2.73
2019-03-15T12:37:23.747Z,2.30
2019-03-15T12:39:51.824Z,2.50
2019-03-15T12:42:19.924Z,2.73
2019-03-15T12:44:48.011Z,2.83
2019-03-15T12:47:16.399Z,2.40
2019-03-15T12:49:44.452Z,2.40
2019-03-15T12:52:12.540Z,2.87
2019-03-15T12:54:40.678Z,2.53
2019-03-15T12:57:08.750Z,3.13
2019-03-15T12:59:36.962Z,2.50
2019-03-15T13:02:05.031Z,2.90
2019-03-15T13:04:33.218Z,2.90
2019-03-15T13:07:02.468Z,2.97
2019-03-15T13:09:33.025Z,3.03
2019-03-15T13:12:02.095Z,2.83
2019-03-15T13:14:30.208Z,3.03
2019-03-15T13:16:58.292Z,3.03
2019-03-15T13:19:26.364Z,2.20
2019-03-15T13:21:54.662Z,2.60
2019-03-15T13:24:22.770Z,2.57
2019-03-15T13:26:50.873Z,2.47
2019-03-15T13:29:18.909Z,2.60
2019-03-15T13:31:47.227Z,2.63
2019-03-15T13:34:15.494Z,2.83
2019-03-15T13:36:43.556Z,2.23
2019-03-15T13:39:11.792Z,2.40
2019-03-15T13:41:39.908Z,2.00
2019-03-15T13:44:08.019Z,2.67
2019-03-15T13:46:36.040Z,2.20
2019-03-15T13:49:04.243Z,2.10
2019-03-15T13:51:32.352Z,2.67
2019-03-15T13:54:00.511Z,2.20
2019-03-15T13:56:28.590Z,2.03
2019-03-15T13:58:57.745Z,2.17
2019-03-15T14:01:25.981Z,2.07
2019-03-15T14:03:54.092Z,2.30
2019-03-15T14:06:22.154Z,2.47
2019-03-15T14:08:50.251Z,2.03
2019-03-15T14:11:18.429Z,1.90
2019-03-15T14:13:46.591Z,2.70
2019-03-15T14:16:14.656Z,1.87
2019-03-15T14:18:42.881Z,2.20
2019-03-15T14:21:11.321Z,2.00
2019-03-15T14:23:39.454Z,2.50
2019-03-15T14:26:07.530Z,2.40
2019-03-15T14:28:35.635Z,2.23
2019-03-15T14:31:03.849Z,2.30
2019-03-15T14:33:32.108Z,2.20
2019-03-15T14:36:00.279Z,2.10
2019-03-15T14:38:28.626Z,2.10
2019-03-15T14:40:56.630Z,1.97
2019-03-15T14:43:24.868Z,2.50
2019-03-15T14:45:53.138Z,1.93
2019-03-15T14:48:21.212Z,1.90
2019-03-15T14:50:50.295Z,2.20
2019-03-15T14:53:18.398Z,2.63
2019-03-15T14:55:46.550Z,2.30
2019-03-15T14:58:14.665Z,2.53
2019-03-15T15:00:42.767Z,2.03
2019-03-15T15:03:10.859Z,2.27
2019-03-15T15:05:38.973Z,2.70
2019-03-15T15:08:07.255Z,2.40
2019-03-15T15:10:35.344Z,2.10
2019-03-15T15:13:03.474Z,2.40
2019-03-15T15:15:31.564Z,2.27
2019-03-15T15:17:59.805Z,2.60
2019-03-15T15:20:27.985Z,2.40
2019-03-15T15:22:56.114Z,2.33
2019-03-15T15:25:24.281Z,2.30
2019-03-15T15:28:03.970Z,2.40
2019-03-15T15:30:22.376Z,2.40
2019-03-15T15:32:50.444Z,2.40
2019-03-15T15:35:18.552Z,2.00
2019-03-15T15:37:46.636Z,2.60
2019-03-15T15:40:14.804Z,2.10
2019-03-15T15:42:42.856Z,2.43
2019-03-15T15:45:11.072Z,2.80
2019-03-15T15:47:39.422Z,2.67
2019-03-15T15:50:07.902Z,2.10
2019-03-15T15:52:35.964Z,2.00
2019-03-15T15:55:04.308Z,2.57
2019-03-15T15:57:32.526Z,2.17
2019-03-15T16:00:00.630Z,2.00
2019-03-15T16:02:28.754Z,2.47
2019-03-15T16:04:57.173Z,2.40
2019-03-15T16:07:25.277Z,2.50
2019-03-15T16:09:53.460Z,1.77
2019-03-15T16:12:21.660Z,1.67
2019-03-15T16:14:49.732Z,2.43
2019-03-15T16:17:17.983Z,2.23
2019-03-15T16:19:46.060Z,2.93
2019-03-15T16:22:14.132Z,2.13
2019-03-15T16:24:42.246Z,2.13
2019-03-15T16:27:10.361Z,2.80
2019-03-15T16:29:38.446Z,2.20
2019-03-15T16:32:06.547Z,2.20
2019-03-15T16:34:34.962Z,1.73
2019-03-15T16:37:03.056Z,1.97
2019-03-15T16:39:31.200Z,2.67
2019-03-15T16:41:59.536Z,2.50
2019-03-15T16:44:27.605Z,2.40
2019-03-15T16:46:55.732Z,2.20
2019-03-15T16:49:23.941Z,1.80
2019-03-15T16:51:52.047Z,2.57
2019-03-15T16:54:20.139Z,1.80
2019-03-15T16:56:48.199Z,2.20
2019-03-15T16:59:16.346Z,1.93
2019-03-15T17:01:44.407Z,2.30
2019-03-15T17:04:12.529Z,2.50
2019-03-15T17:06:40.602Z,2.13
2019-03-15T17:09:09.265Z,2.10
2019-03-15T17:11:37.343Z,1.60
2019-03-15T17:14:05.421Z,1.87
2019-03-15T17:16:33.532Z,1.77
2019-03-15T17:19:03.114Z,1.83
2019-03-15T17:21:31.262Z,2.20
2019-03-15T17:23:59.343Z,1.83
2019-03-15T17:26:27.479Z,2.23
2019-03-15T17:28:58.773Z,1.87
2019-03-15T17:31:25.319Z,2.40
2019-03-15T17:33:53.553Z,2.37
2019-03-15T17:36:21.696Z,2.20
2019-03-15T17:38:49.743Z,2.40
2019-03-15T17:41:17.877Z,2.37
2019-03-15T17:43:46.638Z,2.37
2019-03-15T17:46:14.718Z,1.93
2019-03-15T17:48:42.891Z,1.80
2019-03-15T17:51:11.058Z,2.40
2019-03-15T17:53:39.444Z,1.97
2019-03-15T17:56:07.514Z,1.87
2019-03-15T17:58:35.634Z,2.10
2019-03-15T18:01:03.946Z,2.17
2019-03-15T18:03:32.166Z,2.40
2019-03-15T18:06:00.433Z,2.03
2019-03-15T18:08:28.508Z,2.13
2019-03-15T18:10:57.045Z,2.40
2019-03-15T18:13:25.185Z,2.70
2019-03-15T18:15:53.345Z,2.93
2019-03-15T18:18:21.484Z,2.00
2019-03-15T18:20:49.559Z,1.83
2019-03-15T18:23:17.825Z,1.87
2019-03-15T18:25:45.898Z,1.83
2019-03-15T18:28:13.987Z,2.00
2019-03-15T18:30:42.573Z,2.53
2019-03-15T18:33:10.698Z,2.20
2019-03-15T18:35:38.849Z,2.70
2019-03-15T18:38:06.987Z,2.43
2019-03-15T18:40:35.263Z,2.40
2019-03-15T18:43:03.526Z,2.50
2019-03-15T18:45:32.109Z,2.50
2019-03-15T18:48:00.260Z,2.90
2019-03-15T18:50:28.519Z,2.50
2019-03-15T18:52:58.191Z,2.93
2019-03-15T18:55:26.319Z,2.23
2019-03-15T18:57:54.453Z,2.90
2019-03-15T19:00:22.673Z,2.80
2019-03-15T19:02:50.859Z,2.67
2019-03-15T19:05:19.026Z,2.37
2019-03-15T19:07:47.132Z,2.93
2019-03-15T19:10:15.404Z,2.93
2019-03-15T19:12:43.651Z,3.00
2019-03-15T19:15:12.234Z,2.87
2019-03-15T19:17:40.358Z,2.60
2019-03-15T19:20:08.835Z,3.03
2019-03-15T19:22:36.918Z,2.37
2019-03-15T19:25:07.251Z,2.97
2019-03-15T19:27:35.313Z,2.77
2019-03-15T19:30:03.652Z,3.03
2019-03-15T19:32:33.451Z,2.80
2019-03-15T19:35:01.861Z,2.60
2019-03-15T19:37:30.007Z,2.80
2019-03-15T19:39:58.232Z,2.90
2019-03-15T19:42:26.396Z,2.63
2019-03-15T19:44:54.546Z,2.40
2019-03-15T19:47:23.561Z,3.30
2019-03-15T19:49:51.756Z,3.00
2019-03-15T19:52:20.012Z,2.20
2019-03-15T19:54:59.796Z,2.60
2019-03-15T19:57:18.365Z,2.80
2019-03-15T19:59:46.620Z,2.67
2019-03-15T20:02:16.792Z,2.53
2019-03-15T20:04:44.909Z,2.30
2019-03-15T20:07:13.160Z,2.37
2019-03-15T20:09:41.321Z,2.40
2019-03-15T20:12:09.870Z,2.03
2019-03-15T20:14:38.261Z,2.50
2019-03-15T20:17:06.683Z,2.50
2019-03-15T20:19:36.778Z,2.80
2019-03-15T20:22:04.947Z,2.87
2019-03-15T20:24:36.427Z,2.83
2019-03-15T20:27:03.726Z,3.10
2019-03-15T20:29:31.907Z,2.50
2019-03-15T20:32:00.017Z,2.90
2019-03-15T20:34:28.630Z,2.87
2019-03-15T20:36:56.810Z,2.20
2019-03-15T20:39:24.916Z,2.27
2019-03-15T20:41:53.142Z,2.57
2019-03-15T20:44:28.464Z,2.63
2019-03-15T20:46:51.448Z,2.10
2019-03-15T20:49:19.625Z,2.47
2019-03-15T20:51:48.103Z,2.70
2019-03-15T20:54:16.372Z,2.53
2019-03-15T20:56:44.930Z,2.77
2019-03-15T20:59:13.031Z,2.50
2019-03-15T21:01:41.209Z,2.90
2019-03-15T21:04:09.401Z,2.10
2019-03-15T21:06:37.501Z,2.60
2019-03-15T21:09:06.699Z,2.67
2019-03-15T21:11:34.869Z,2.83
2019-03-15T21:14:03.024Z,2.20
2019-03-15T21:16:31.194Z,2.13
2019-03-15T21:18:59.317Z,2.50
2019-03-15T21:21:27.489Z,2.83
2019-03-15T21:23:55.692Z,2.50
2019-03-15T21:26:23.850Z,2.87
2019-03-15T21:28:52.052Z,2.27
2019-03-15T21:31:20.309Z,2.47
2019-03-15T21:33:48.515Z,2.37
2019-03-15T21:36:16.615Z,2.80
2019-03-15T21:38:48.355Z,2.63
2019-03-15T21:41:14.495Z,2.60
2019-03-15T21:43:42.715Z,2.43
2019-03-15T21:46:13.487Z,2.73
2019-03-15T21:48:41.565Z,2.40
2019-03-15T21:51:09.802Z,2.53
2019-03-15T21:53:37.882Z,2.73
2019-03-15T21:56:06.023Z,1.97
2019-03-15T21:58:35.216Z,2.70
2019-03-15T22:01:03.353Z,2.17
2019-03-15T22:03:31.473Z,2.77
2019-03-15T22:05:59.578Z,2.33
2019-03-15T22:08:27.711Z,2.43
2019-03-15T22:10:55.793Z,2.90
2019-03-15T22:13:23.920Z,2.70
2019-03-15T22:15:52.009Z,2.97
2019-03-15T22:18:20.306Z,2.40
2019-03-15T22:20:48.570Z,2.67
2019-03-15T22:23:16.769Z,2.40
2019-03-15T22:25:44.877Z,2.80
2019-03-15T22:28:13.002Z,2.97
2019-03-15T22:30:41.501Z,2.93
2019-03-15T22:33:09.577Z,3.10
2019-03-15T22:35:37.694Z,2.60
2019-03-15T22:38:05.815Z,3.00
2019-03-15T22:40:34.945Z,2.43
2019-03-15T22:43:03.125Z,3.13
2019-03-15T22:45:31.342Z,3.20
2019-03-15T22:47:59.443Z,2.90
2019-03-15T22:50:27.545Z,2.47
2019-03-15T22:52:55.651Z,2.80
2019-03-15T22:55:23.761Z,2.80
2019-03-15T22:57:59.727Z,2.40
2019-03-15T23:00:26.291Z,2.67
2019-03-15T23:02:54.468Z,2.17
2019-03-15T23:05:22.596Z,2.30
2019-03-15T23:07:50.731Z,2.83
2019-03-15T23:10:19.028Z,2.63
2019-03-15T23:12:47.569Z,2.80
2019-03-15T23:15:15.647Z,2.53
2019-03-15T23:17:43.738Z,2.40
2019-03-15T23:20:11.877Z,1.80
2019-03-15T23:22:40.379Z,2.17
2019-03-15T23:25:08.581Z,2.43
2019-03-15T23:27:36.840Z,2.77
2019-03-15T23:30:05.580Z,2.70
2019-03-15T23:32:33.651Z,2.50
2019-03-15T23:35:01.834Z,2.27
2019-03-15T23:37:29.929Z,2.03
2019-03-15T23:39:58.136Z,2.20
2019-03-15T23:42:26.248Z,2.77
2019-03-15T23:44:54.343Z,2.10
2019-03-15T23:47:22.395Z,2.43
2019-03-15T23:49:50.466Z,2.90
2019-03-15T23:52:18.683Z,2.13
2019-03-15T23:54:46.807Z,2.20
2019-03-15T23:57:14.866Z,2.53
2019-03-15T23:59:42.965Z,2.47
